Авиационная погода в Богашево

Регион: 
Погода METAR: 
UNTT 201730Z 00000MPS CAVOK 08/06 Q1017 R21/090060 NOSIG RMK QFE748
Время наблюдения: 
2020-09-20T17:30:00Z
Температура C: 
8.0
Точка росы: 
6.0
Направление ветра: 
0
Скорость ветра (узлы): 
0
Метеорологическая видимость: 
6.21
Условия полета: 
VFR
Аэропорт подробнее: 

Найти трансфер

С помощью этой формы Вы можете найти трансфер из аэропорта Авиационная погода в Богашево в город, аэропорт или вокзал: